sensor_id;sensor_type;location;lat;lon;timestamp;P1;durP1;ratioP1;P2;durP2;ratioP2
63536;SDS011;49686;51.880;5.632;2022-12-11T00:02:20;81.03;;;15.93;;
63536;SDS011;49686;51.880;5.632;2022-12-11T00:04:50;88.90;;;17.33;;
63536;SDS011;49686;51.880;5.632;2022-12-11T00:07:17;81.53;;;15.38;;
63536;SDS011;49686;51.880;5.632;2022-12-11T00:09:43;65.13;;;14.65;;
63536;SDS011;49686;51.880;5.632;2022-12-11T00:12:11;76.57;;;16.65;;
63536;SDS011;49686;51.880;5.632;2022-12-11T00:14:38;62.30;;;14.27;;
63536;SDS011;49686;51.880;5.632;2022-12-11T00:17:05;41.88;;;10.90;;
63536;SDS011;49686;51.880;5.632;2022-12-11T00:19:32;81.43;;;15.23;;
63536;SDS011;49686;51.880;5.632;2022-12-11T00:21:59;54.47;;;13.70;;
63536;SDS011;49686;51.880;5.632;2022-12-11T00:24:28;41.00;;;9.95;;
63536;SDS011;49686;51.880;5.632;2022-12-11T00:26:55;71.47;;;15.50;;
63536;SDS011;49686;51.880;5.632;2022-12-11T00:29:24;89.68;;;17.60;;
63536;SDS011;49686;51.880;5.632;2022-12-11T00:34:33;92.28;;;16.92;;
63536;SDS011;49686;51.880;5.632;2022-12-11T00:37:00;72.13;;;15.02;;
63536;SDS011;49686;51.880;5.632;2022-12-11T00:39:27;75.70;;;14.60;;
63536;SDS011;49686;51.880;5.632;2022-12-11T00:41:53;70.53;;;14.98;;
63536;SDS011;49686;51.880;5.632;2022-12-11T00:44:20;66.65;;;15.07;;
63536;SDS011;49686;51.880;5.632;2022-12-11T00:46:48;88.72;;;17.70;;
63536;SDS011;49686;51.880;5.632;2022-12-11T00:49:16;63.40;;;13.88;;
63536;SDS011;49686;51.880;5.632;2022-12-11T00:51:45;48.47;;;11.85;;
63536;SDS011;49686;51.880;5.632;2022-12-11T00:54:12;95.28;;;18.60;;
63536;SDS011;49686;51.880;5.632;2022-12-11T00:56:39;69.82;;;14.43;;
63536;SDS011;49686;51.880;5.632;2022-12-11T00:59:05;93.55;;;17.35;;
63536;SDS011;49686;51.880;5.632;2022-12-11T01:01:34;75.50;;;14.40;;
63536;SDS011;49686;51.880;5.632;2022-12-11T01:04:02;55.42;;;13.32;;
63536;SDS011;49686;51.880;5.632;2022-12-11T01:06:29;75.35;;;15.10;;
63536;SDS011;49686;51.880;5.632;2022-12-11T01:08:56;67.97;;;14.77;;
63536;SDS011;49686;51.880;5.632;2022-12-11T01:11:23;73.18;;;16.10;;
63536;SDS011;49686;51.880;5.632;2022-12-11T01:13:50;71.35;;;14.38;;
63536;SDS011;49686;51.880;5.632;2022-12-11T01:16:16;52.78;;;11.70;;
63536;SDS011;49686;51.880;5.632;2022-12-11T01:18:43;41.85;;;11.52;;
63536;SDS011;49686;51.880;5.632;2022-12-11T01:21:12;95.97;;;18.58;;
63536;SDS011;49686;51.880;5.632;2022-12-11T01:23:41;47.00;;;11.73;;
63536;SDS011;49686;51.880;5.632;2022-12-11T01:26:08;89.53;;;18.23;;
63536;SDS011;49686;51.880;5.632;2022-12-11T01:28:39;90.43;;;18.02;;
63536;SDS011;49686;51.880;5.632;2022-12-11T01:31:07;79.63;;;15.83;;
63536;SDS011;49686;51.880;5.632;2022-12-11T01:33:38;85.88;;;15.40;;
63536;SDS011;49686;51.880;5.632;2022-12-11T01:36:07;56.08;;;12.40;;
63536;SDS011;49686;51.880;5.632;2022-12-11T01:38:39;102.57;;;19.50;;
63536;SDS011;49686;51.880;5.632;2022-12-11T01:41:05;77.18;;;15.85;;
63536;SDS011;49686;51.880;5.632;2022-12-11T01:43:33;56.88;;;13.25;;
63536;SDS011;49686;51.880;5.632;2022-12-11T01:46:00;55.00;;;14.05;;
63536;SDS011;49686;51.880;5.632;2022-12-11T01:48:29;100.68;;;18.38;;
63536;SDS011;49686;51.880;5.632;2022-12-11T01:51:00;89.68;;;16.75;;
63536;SDS011;49686;51.880;5.632;2022-12-11T01:53:30;84.65;;;16.33;;
63536;SDS011;49686;51.880;5.632;2022-12-11T01:56:04;74.50;;;14.02;;
63536;SDS011;49686;51.880;5.632;2022-12-11T01:58:34;89.30;;;17.50;;
63536;SDS011;49686;51.880;5.632;2022-12-11T02:01:05;66.95;;;13.05;;
63536;SDS011;49686;51.880;5.632;2022-12-11T02:03:34;79.38;;;13.60;;
63536;SDS011;49686;51.880;5.632;2022-12-11T02:06:00;107.18;;;18.50;;
63536;SDS011;49686;51.880;5.632;2022-12-11T02:08:27;103.45;;;17.65;;
63536;SDS011;49686;51.880;5.632;2022-12-11T02:10:58;126.55;;;22.17;;
63536;SDS011;49686;51.880;5.632;2022-12-11T02:13:33;84.90;;;16.23;;
63536;SDS011;49686;51.880;5.632;2022-12-11T02:16:11;98.60;;;17.85;;
63536;SDS011;49686;51.880;5.632;2022-12-11T02:18:47;74.07;;;15.10;;
63536;SDS011;49686;51.880;5.632;2022-12-11T02:21:22;90.35;;;17.90;;
63536;SDS011;49686;51.880;5.632;2022-12-11T02:24:01;54.72;;;12.88;;
63536;SDS011;49686;51.880;5.632;2022-12-11T02:26:49;91.18;;;16.45;;
63536;SDS011;49686;51.880;5.632;2022-12-11T02:29:35;95.93;;;17.35;;
63536;SDS011;49686;51.880;5.632;2022-12-11T02:32:05;112.50;;;19.98;;
63536;SDS011;49686;51.880;5.632;2022-12-11T02:34:40;75.75;;;14.07;;
63536;SDS011;49686;51.880;5.632;2022-12-11T02:37:11;90.07;;;18.85;;
63536;SDS011;49686;51.880;5.632;2022-12-11T02:39:41;78.00;;;16.30;;
63536;SDS011;49686;51.880;5.632;2022-12-11T02:42:13;111.43;;;19.80;;
63536;SDS011;49686;51.880;5.632;2022-12-11T02:44:45;110.13;;;20.70;;
63536;SDS011;49686;51.880;5.632;2022-12-11T02:47:15;81.25;;;17.70;;
63536;SDS011;49686;51.880;5.632;2022-12-11T02:49:46;108.45;;;20.25;;
63536;SDS011;49686;51.880;5.632;2022-12-11T02:52:19;100.25;;;17.90;;
63536;SDS011;49686;51.880;5.632;2022-12-11T02:54:48;70.05;;;14.02;;
63536;SDS011;49686;51.880;5.632;2022-12-11T02:57:21;100.55;;;18.13;;
63536;SDS011;49686;51.880;5.632;2022-12-11T02:59:54;81.82;;;16.17;;
63536;SDS011;49686;51.880;5.632;2022-12-11T03:02:20;116.07;;;20.53;;
63536;SDS011;49686;51.880;5.632;2022-12-11T03:04:48;91.97;;;18.58;;
63536;SDS011;49686;51.880;5.632;2022-12-11T03:07:17;80.60;;;16.63;;
63536;SDS011;49686;51.880;5.632;2022-12-11T03:09:46;88.72;;;17.77;;
63536;SDS011;49686;51.880;5.632;2022-12-11T03:12:15;73.75;;;15.35;;
63536;SDS011;49686;51.880;5.632;2022-12-11T03:14:45;84.45;;;16.67;;
63536;SDS011;49686;51.880;5.632;2022-12-11T03:17:15;70.38;;;13.80;;
63536;SDS011;49686;51.880;5.632;2022-12-11T03:19:45;85.97;;;16.38;;
63536;SDS011;49686;51.880;5.632;2022-12-11T03:22:24;74.80;;;14.18;;
63536;SDS011;49686;51.880;5.632;2022-12-11T03:24:59;98.65;;;18.63;;
63536;SDS011;49686;51.880;5.632;2022-12-11T03:27:31;69.28;;;14.15;;
63536;SDS011;49686;51.880;5.632;2022-12-11T03:30:02;58.88;;;13.80;;
63536;SDS011;49686;51.880;5.632;2022-12-11T03:32:42;86.63;;;18.35;;
63536;SDS011;49686;51.880;5.632;2022-12-11T03:35:17;88.47;;;18.77;;
63536;SDS011;49686;51.880;5.632;2022-12-11T03:37:48;79.35;;;15.77;;
63536;SDS011;49686;51.880;5.632;2022-12-11T03:40:18;63.28;;;15.07;;
63536;SDS011;49686;51.880;5.632;2022-12-11T03:42:48;98.32;;;19.45;;
63536;SDS011;49686;51.880;5.632;2022-12-11T03:47:49;75.82;;;16.38;;
63536;SDS011;49686;51.880;5.632;2022-12-11T03:50:18;85.88;;;17.08;;
63536;SDS011;49686;51.880;5.632;2022-12-11T03:55:15;58.05;;;13.48;;
63536;SDS011;49686;51.880;5.632;2022-12-11T03:57:44;82.00;;;17.08;;
63536;SDS011;49686;51.880;5.632;2022-12-11T04:00:12;54.88;;;13.38;;
63536;SDS011;49686;51.880;5.632;2022-12-11T04:02:40;47.33;;;12.23;;
63536;SDS011;49686;51.880;5.632;2022-12-11T04:05:09;71.95;;;17.42;;
63536;SDS011;49686;51.880;5.632;2022-12-11T04:07:37;78.78;;;17.20;;
63536;SDS011;49686;51.880;5.632;2022-12-11T04:10:04;75.00;;;17.10;;
63536;SDS011;49686;51.880;5.632;2022-12-11T04:12:31;62.42;;;14.43;;
63536;SDS011;49686;51.880;5.632;2022-12-11T04:15:00;67.28;;;16.58;;
63536;SDS011;49686;51.880;5.632;2022-12-11T04:17:27;87.63;;;18.55;;
63536;SDS011;49686;51.880;5.632;2022-12-11T04:19:54;79.63;;;17.85;;
63536;SDS011;49686;51.880;5.632;2022-12-11T04:22:25;73.15;;;18.38;;
63536;SDS011;49686;51.880;5.632;2022-12-11T04:24:52;49.40;;;12.60;;
63536;SDS011;49686;51.880;5.632;2022-12-11T04:27:19;68.97;;;18.10;;
63536;SDS011;49686;51.880;5.632;2022-12-11T04:29:46;72.90;;;17.83;;
63536;SDS011;49686;51.880;5.632;2022-12-11T04:32:13;58.88;;;15.63;;
63536;SDS011;49686;51.880;5.632;2022-12-11T04:34:40;78.75;;;18.13;;
63536;SDS011;49686;51.880;5.632;2022-12-11T04:37:06;61.78;;;16.00;;
63536;SDS011;49686;51.880;5.632;2022-12-11T04:39:35;74.97;;;17.73;;
63536;SDS011;49686;51.880;5.632;2022-12-11T04:42:01;57.83;;;15.00;;
63536;SDS011;49686;51.880;5.632;2022-12-11T04:44:28;66.13;;;17.55;;
63536;SDS011;49686;51.880;5.632;2022-12-11T04:46:55;63.83;;;16.60;;
63536;SDS011;49686;51.880;5.632;2022-12-11T04:49:22;74.60;;;19.23;;
63536;SDS011;49686;51.880;5.632;2022-12-11T04:51:51;45.50;;;13.82;;
63536;SDS011;49686;51.880;5.632;2022-12-11T04:54:19;60.55;;;16.30;;
63536;SDS011;49686;51.880;5.632;2022-12-11T04:56:50;58.67;;;18.52;;
63536;SDS011;49686;51.880;5.632;2022-12-11T04:59:17;61.10;;;17.35;;
63536;SDS011;49686;51.880;5.632;2022-12-11T05:01:43;41.00;;;14.60;;
63536;SDS011;49686;51.880;5.632;2022-12-11T05:04:10;45.28;;;16.35;;
63536;SDS011;49686;51.880;5.632;2022-12-11T05:06:37;52.47;;;17.20;;
63536;SDS011;49686;51.880;5.632;2022-12-11T05:09:09;44.30;;;13.18;;
63536;SDS011;49686;51.880;5.632;2022-12-11T05:11:36;28.92;;;10.98;;
63536;SDS011;49686;51.880;5.632;2022-12-11T05:14:07;53.53;;;18.30;;
63536;SDS011;49686;51.880;5.632;2022-12-11T05:16:36;54.45;;;18.83;;
63536;SDS011;49686;51.880;5.632;2022-12-11T05:19:04;50.22;;;17.10;;
63536;SDS011;49686;51.880;5.632;2022-12-11T05:21:31;49.28;;;18.33;;
63536;SDS011;49686;51.880;5.632;2022-12-11T05:24:00;35.80;;;12.98;;
63536;SDS011;49686;51.880;5.632;2022-12-11T05:26:30;48.90;;;16.67;;
63536;SDS011;49686;51.880;5.632;2022-12-11T05:28:57;40.40;;;16.13;;
63536;SDS011;49686;51.880;5.632;2022-12-11T05:31:25;46.10;;;15.85;;
63536;SDS011;49686;51.880;5.632;2022-12-11T05:33:53;38.70;;;14.48;;
63536;SDS011;49686;51.880;5.632;2022-12-11T05:36:34;46.33;;;16.38;;
63536;SDS011;49686;51.880;5.632;2022-12-11T05:39:02;34.63;;;12.73;;
63536;SDS011;49686;51.880;5.632;2022-12-11T05:41:39;39.72;;;15.20;;
63536;SDS011;49686;51.880;5.632;2022-12-11T05:44:06;29.63;;;11.63;;
63536;SDS011;49686;51.880;5.632;2022-12-11T05:46:37;29.40;;;11.52;;
63536;SDS011;49686;51.880;5.632;2022-12-11T05:49:05;39.35;;;15.55;;
63536;SDS011;49686;51.880;5.632;2022-12-11T05:51:32;41.20;;;14.52;;
63536;SDS011;49686;51.880;5.632;2022-12-11T05:54:02;47.35;;;16.45;;
63536;SDS011;49686;51.880;5.632;2022-12-11T05:56:30;39.95;;;14.63;;
63536;SDS011;49686;51.880;5.632;2022-12-11T05:58:58;40.42;;;16.45;;
63536;SDS011;49686;51.880;5.632;2022-12-11T06:01:27;28.77;;;10.90;;
63536;SDS011;49686;51.880;5.632;2022-12-11T06:03:57;37.25;;;14.35;;
63536;SDS011;49686;51.880;5.632;2022-12-11T06:06:25;33.05;;;11.98;;
63536;SDS011;49686;51.880;5.632;2022-12-11T06:08:53;36.42;;;14.52;;
63536;SDS011;49686;51.880;5.632;2022-12-11T06:11:22;37.05;;;14.43;;
63536;SDS011;49686;51.880;5.632;2022-12-11T06:13:49;32.42;;;11.98;;
63536;SDS011;49686;51.880;5.632;2022-12-11T06:16:16;33.90;;;12.07;;
63536;SDS011;49686;51.880;5.632;2022-12-11T06:18:44;37.25;;;14.90;;
63536;SDS011;49686;51.880;5.632;2022-12-11T06:21:13;32.53;;;14.05;;
63536;SDS011;49686;51.880;5.632;2022-12-11T06:23:41;38.10;;;14.30;;
63536;SDS011;49686;51.880;5.632;2022-12-11T06:26:09;27.48;;;11.45;;
63536;SDS011;49686;51.880;5.632;2022-12-11T06:28:39;33.90;;;13.13;;
63536;SDS011;49686;51.880;5.632;2022-12-11T06:31:06;34.88;;;14.05;;
63536;SDS011;49686;51.880;5.632;2022-12-11T06:33:33;29.15;;;10.88;;
63536;SDS011;49686;51.880;5.632;2022-12-11T06:36:00;26.13;;;11.27;;
63536;SDS011;49686;51.880;5.632;2022-12-11T06:38:29;34.47;;;12.95;;
63536;SDS011;49686;51.880;5.632;2022-12-11T06:40:56;33.60;;;13.45;;
63536;SDS011;49686;51.880;5.632;2022-12-11T06:43:23;36.85;;;13.23;;
63536;SDS011;49686;51.880;5.632;2022-12-11T06:45:50;34.65;;;13.30;;
63536;SDS011;49686;51.880;5.632;2022-12-11T06:48:18;26.77;;;10.40;;
63536;SDS011;49686;51.880;5.632;2022-12-11T06:50:45;23.85;;;9.30;;
63536;SDS011;49686;51.880;5.632;2022-12-11T06:53:12;30.60;;;12.27;;
63536;SDS011;49686;51.880;5.632;2022-12-11T06:55:41;32.13;;;13.17;;
63536;SDS011;49686;51.880;5.632;2022-12-11T06:58:08;30.40;;;13.40;;
63536;SDS011;49686;51.880;5.632;2022-12-11T07:00:35;28.52;;;10.85;;
63536;SDS011;49686;51.880;5.632;2022-12-11T07:03:03;23.88;;;10.55;;
63536;SDS011;49686;51.880;5.632;2022-12-11T07:05:30;29.35;;;12.77;;
63536;SDS011;49686;51.880;5.632;2022-12-11T07:07:57;26.15;;;11.63;;
63536;SDS011;49686;51.880;5.632;2022-12-11T07:10:24;26.00;;;11.73;;
63536;SDS011;49686;51.880;5.632;2022-12-11T07:12:55;30.23;;;11.27;;
63536;SDS011;49686;51.880;5.632;2022-12-11T07:15:22;16.15;;;6.82;;
63536;SDS011;49686;51.880;5.632;2022-12-11T07:17:48;30.08;;;11.40;;
63536;SDS011;49686;51.880;5.632;2022-12-11T07:20:16;23.35;;;9.30;;
63536;SDS011;49686;51.880;5.632;2022-12-11T07:22:43;27.27;;;10.50;;
63536;SDS011;49686;51.880;5.632;2022-12-11T07:27:39;23.05;;;9.50;;
63536;SDS011;49686;51.880;5.632;2022-12-11T07:30:08;18.58;;;7.63;;
63536;SDS011;49686;51.880;5.632;2022-12-11T07:32:35;25.35;;;9.73;;
63536;SDS011;49686;51.880;5.632;2022-12-11T07:35:03;16.48;;;5.78;;
63536;SDS011;49686;51.880;5.632;2022-12-11T07:37:30;22.48;;;8.90;;
63536;SDS011;49686;51.880;5.632;2022-12-11T07:39:57;25.98;;;11.55;;
63536;SDS011;49686;51.880;5.632;2022-12-11T07:42:23;23.83;;;10.05;;
63536;SDS011;49686;51.880;5.632;2022-12-11T07:44:53;27.00;;;10.55;;
63536;SDS011;49686;51.880;5.632;2022-12-11T07:47:21;20.23;;;9.15;;
63536;SDS011;49686;51.880;5.632;2022-12-11T07:49:48;26.67;;;11.13;;
63536;SDS011;49686;51.880;5.632;2022-12-11T07:52:17;25.73;;;10.35;;
63536;SDS011;49686;51.880;5.632;2022-12-11T07:54:44;27.77;;;10.55;;
63536;SDS011;49686;51.880;5.632;2022-12-11T07:57:11;17.98;;;7.22;;
63536;SDS011;49686;51.880;5.632;2022-12-11T07:59:39;14.57;;;5.93;;
63536;SDS011;49686;51.880;5.632;2022-12-11T08:02:07;28.95;;;12.25;;
63536;SDS011;49686;51.880;5.632;2022-12-11T08:04:40;15.48;;;7.05;;
63536;SDS011;49686;51.880;5.632;2022-12-11T08:07:07;25.63;;;9.27;;
63536;SDS011;49686;51.880;5.632;2022-12-11T08:09:35;25.92;;;10.50;;
63536;SDS011;49686;51.880;5.632;2022-12-11T08:12:02;21.67;;;9.05;;
63536;SDS011;49686;51.880;5.632;2022-12-11T08:14:35;24.67;;;10.68;;
63536;SDS011;49686;51.880;5.632;2022-12-11T08:17:08;27.25;;;11.38;;
63536;SDS011;49686;51.880;5.632;2022-12-11T08:19:36;26.58;;;10.02;;
63536;SDS011;49686;51.880;5.632;2022-12-11T08:22:03;20.30;;;9.55;;
63536;SDS011;49686;51.880;5.632;2022-12-11T08:24:30;27.60;;;11.55;;
63536;SDS011;49686;51.880;5.632;2022-12-11T08:26:56;29.85;;;12.02;;
63536;SDS011;49686;51.880;5.632;2022-12-11T08:29:23;29.15;;;12.20;;
63536;SDS011;49686;51.880;5.632;2022-12-11T08:31:50;28.85;;;12.30;;
63536;SDS011;49686;51.880;5.632;2022-12-11T08:34:17;23.90;;;10.55;;
63536;SDS011;49686;51.880;5.632;2022-12-11T08:36:45;20.42;;;8.77;;
63536;SDS011;49686;51.880;5.632;2022-12-11T08:39:12;32.60;;;14.30;;
63536;SDS011;49686;51.880;5.632;2022-12-11T08:41:38;27.45;;;12.27;;
63536;SDS011;49686;51.880;5.632;2022-12-11T08:44:09;17.98;;;8.60;;
63536;SDS011;49686;51.880;5.632;2022-12-11T08:46:42;26.85;;;11.30;;
63536;SDS011;49686;51.880;5.632;2022-12-11T08:49:09;27.13;;;11.65;;
63536;SDS011;49686;51.880;5.632;2022-12-11T08:51:38;23.73;;;8.85;;
63536;SDS011;49686;51.880;5.632;2022-12-11T08:54:07;23.90;;;10.65;;
63536;SDS011;49686;51.880;5.632;2022-12-11T08:56:34;26.13;;;10.32;;
63536;SDS011;49686;51.880;5.632;2022-12-11T08:59:01;26.63;;;10.02;;
63536;SDS011;49686;51.880;5.632;2022-12-11T09:01:28;24.85;;;9.98;;
63536;SDS011;49686;51.880;5.632;2022-12-11T09:03:55;22.38;;;8.95;;
63536;SDS011;49686;51.880;5.632;2022-12-11T09:06:24;22.80;;;9.98;;
63536;SDS011;49686;51.880;5.632;2022-12-11T09:08:57;18.85;;;8.43;;
63536;SDS011;49686;51.880;5.632;2022-12-11T09:11:26;19.80;;;8.48;;
63536;SDS011;49686;51.880;5.632;2022-12-11T09:13:57;18.58;;;7.53;;
63536;SDS011;49686;51.880;5.632;2022-12-11T09:16:33;20.08;;;8.88;;
63536;SDS011;49686;51.880;5.632;2022-12-11T09:19:03;17.75;;;7.20;;
63536;SDS011;49686;51.880;5.632;2022-12-11T09:21:32;20.95;;;9.35;;
63536;SDS011;49686;51.880;5.632;2022-12-11T09:23:59;23.55;;;10.13;;
63536;SDS011;49686;51.880;5.632;2022-12-11T09:26:28;20.83;;;8.52;;
63536;SDS011;49686;51.880;5.632;2022-12-11T09:28:55;20.90;;;9.30;;
63536;SDS011;49686;51.880;5.632;2022-12-11T09:31:25;23.40;;;8.88;;
63536;SDS011;49686;51.880;5.632;2022-12-11T09:33:53;24.98;;;11.05;;
63536;SDS011;49686;51.880;5.632;2022-12-11T09:36:22;21.27;;;9.63;;
63536;SDS011;49686;51.880;5.632;2022-12-11T09:38:51;19.92;;;8.23;;
63536;SDS011;49686;51.880;5.632;2022-12-11T09:41:25;22.55;;;9.63;;
63536;SDS011;49686;51.880;5.632;2022-12-11T09:44:01;22.80;;;10.30;;
63536;SDS011;49686;51.880;5.632;2022-12-11T09:46:40;23.05;;;10.15;;
63536;SDS011;49686;51.880;5.632;2022-12-11T09:51:41;19.50;;;9.45;;
63536;SDS011;49686;51.880;5.632;2022-12-11T09:54:12;19.67;;;8.55;;
63536;SDS011;49686;51.880;5.632;2022-12-11T09:56:46;25.70;;;10.05;;
63536;SDS011;49686;51.880;5.632;2022-12-11T09:59:22;22.40;;;9.63;;
63536;SDS011;49686;51.880;5.632;2022-12-11T10:01:58;23.70;;;9.80;;
63536;SDS011;49686;51.880;5.632;2022-12-11T10:04:37;33.80;;;12.60;;
63536;SDS011;49686;51.880;5.632;2022-12-11T10:07:10;28.15;;;11.38;;
63536;SDS011;49686;51.880;5.632;2022-12-11T10:09:42;25.05;;;10.48;;
63536;SDS011;49686;51.880;5.632;2022-12-11T10:12:19;22.73;;;9.90;;
63536;SDS011;49686;51.880;5.632;2022-12-11T10:15:10;27.85;;;11.98;;
63536;SDS011;49686;51.880;5.632;2022-12-11T10:17:53;29.45;;;13.13;;
63536;SDS011;49686;51.880;5.632;2022-12-11T10:20:31;22.48;;;10.45;;
63536;SDS011;49686;51.880;5.632;2022-12-11T10:22:59;27.30;;;11.73;;
63536;SDS011;49686;51.880;5.632;2022-12-11T10:25:28;26.70;;;12.23;;
63536;SDS011;49686;51.880;5.632;2022-12-11T10:27:59;29.17;;;13.10;;
63536;SDS011;49686;51.880;5.632;2022-12-11T10:30:34;26.30;;;12.27;;
63536;SDS011;49686;51.880;5.632;2022-12-11T10:33:04;22.00;;;10.45;;
63536;SDS011;49686;51.880;5.632;2022-12-11T10:35:40;25.35;;;11.48;;
63536;SDS011;49686;51.880;5.632;2022-12-11T10:38:14;23.50;;;10.45;;
63536;SDS011;49686;51.880;5.632;2022-12-11T10:40:43;25.10;;;10.88;;
63536;SDS011;49686;51.880;5.632;2022-12-11T10:43:12;22.50;;;9.77;;
63536;SDS011;49686;51.880;5.632;2022-12-11T10:48:14;24.73;;;9.95;;
63536;SDS011;49686;51.880;5.632;2022-12-11T10:50:41;25.15;;;11.43;;
63536;SDS011;49686;51.880;5.632;2022-12-11T10:53:19;26.67;;;12.23;;
63536;SDS011;49686;51.880;5.632;2022-12-11T10:55:47;21.70;;;10.57;;
63536;SDS011;49686;51.880;5.632;2022-12-11T10:58:17;25.05;;;11.55;;
63536;SDS011;49686;51.880;5.632;2022-12-11T11:00:45;26.60;;;12.45;;
63536;SDS011;49686;51.880;5.632;2022-12-11T11:03:27;23.25;;;10.23;;
63536;SDS011;49686;51.880;5.632;2022-12-11T11:06:00;23.80;;;10.65;;
63536;SDS011;49686;51.880;5.632;2022-12-11T11:08:38;27.73;;;13.18;;
63536;SDS011;49686;51.880;5.632;2022-12-11T11:11:13;24.25;;;11.38;;
63536;SDS011;49686;51.880;5.632;2022-12-11T11:13:51;31.17;;;12.63;;
63536;SDS011;49686;51.880;5.632;2022-12-11T11:16:29;19.52;;;8.02;;
63536;SDS011;49686;51.880;5.632;2022-12-11T11:18:57;32.40;;;13.52;;
63536;SDS011;49686;51.880;5.632;2022-12-11T11:21:24;39.45;;;15.07;;
63536;SDS011;49686;51.880;5.632;2022-12-11T11:23:52;40.70;;;15.55;;
63536;SDS011;49686;51.880;5.632;2022-12-11T11:26:20;33.28;;;11.35;;
63536;SDS011;49686;51.880;5.632;2022-12-11T11:28:50;28.02;;;12.32;;
63536;SDS011;49686;51.880;5.632;2022-12-11T11:31:19;24.20;;;11.23;;
63536;SDS011;49686;51.880;5.632;2022-12-11T11:33:56;27.27;;;11.77;;
63536;SDS011;49686;51.880;5.632;2022-12-11T11:36:28;22.67;;;9.93;;
63536;SDS011;49686;51.880;5.632;2022-12-11T11:39:02;20.40;;;9.82;;
63536;SDS011;49686;51.880;5.632;2022-12-11T11:41:42;23.55;;;11.80;;
63536;SDS011;49686;51.880;5.632;2022-12-11T11:44:14;24.13;;;11.50;;
63536;SDS011;49686;51.880;5.632;2022-12-11T11:46:46;29.98;;;12.80;;
63536;SDS011;49686;51.880;5.632;2022-12-11T11:49:19;21.50;;;9.02;;
63536;SDS011;49686;51.880;5.632;2022-12-11T11:51:53;25.17;;;11.30;;
63536;SDS011;49686;51.880;5.632;2022-12-11T11:54:27;24.50;;;11.25;;
63536;SDS011;49686;51.880;5.632;2022-12-11T11:56:58;24.60;;;10.40;;
63536;SDS011;49686;51.880;5.632;2022-12-11T11:59:32;26.70;;;11.85;;
63536;SDS011;49686;51.880;5.632;2022-12-11T12:02:08;17.85;;;7.65;;
63536;SDS011;49686;51.880;5.632;2022-12-11T12:04:39;28.25;;;12.45;;
63536;SDS011;49686;51.880;5.632;2022-12-11T12:07:10;23.80;;;9.55;;
63536;SDS011;49686;51.880;5.632;2022-12-11T12:09:48;23.02;;;11.07;;
63536;SDS011;49686;51.880;5.632;2022-12-11T12:12:25;23.00;;;10.07;;
63536;SDS011;49686;51.880;5.632;2022-12-11T12:15:14;28.17;;;11.68;;
63536;SDS011;49686;51.880;5.632;2022-12-11T12:17:49;20.30;;;9.90;;
63536;SDS011;49686;51.880;5.632;2022-12-11T12:20:23;28.67;;;12.77;;
63536;SDS011;49686;51.880;5.632;2022-12-11T12:22:58;28.52;;;12.30;;
63536;SDS011;49686;51.880;5.632;2022-12-11T12:25:35;19.40;;;8.07;;
63536;SDS011;49686;51.880;5.632;2022-12-11T12:28:11;28.17;;;12.90;;
63536;SDS011;49686;51.880;5.632;2022-12-11T12:30:53;22.92;;;10.60;;
63536;SDS011;49686;51.880;5.632;2022-12-11T12:33:35;25.83;;;11.43;;
63536;SDS011;49686;51.880;5.632;2022-12-11T12:36:14;26.10;;;11.85;;
63536;SDS011;49686;51.880;5.632;2022-12-11T12:38:49;23.70;;;10.57;;
63536;SDS011;49686;51.880;5.632;2022-12-11T12:41:19;28.52;;;12.50;;
63536;SDS011;49686;51.880;5.632;2022-12-11T12:43:55;28.98;;;12.45;;
63536;SDS011;49686;51.880;5.632;2022-12-11T12:46:41;25.30;;;10.70;;
63536;SDS011;49686;51.880;5.632;2022-12-11T12:49:19;24.52;;;11.73;;
63536;SDS011;49686;51.880;5.632;2022-12-11T12:52:03;27.17;;;11.05;;
63536;SDS011;49686;51.880;5.632;2022-12-11T12:54:35;22.65;;;9.25;;
63536;SDS011;49686;51.880;5.632;2022-12-11T12:57:03;27.27;;;11.57;;
63536;SDS011;49686;51.880;5.632;2022-12-11T12:59:33;28.45;;;12.77;;
63536;SDS011;49686;51.880;5.632;2022-12-11T13:02:02;23.90;;;9.75;;
63536;SDS011;49686;51.880;5.632;2022-12-11T13:04:33;22.05;;;10.23;;
63536;SDS011;49686;51.880;5.632;2022-12-11T13:07:24;23.30;;;10.98;;
63536;SDS011;49686;51.880;5.632;2022-12-11T13:10:00;25.00;;;10.93;;
63536;SDS011;49686;51.880;5.632;2022-12-11T13:12:31;20.83;;;9.75;;
63536;SDS011;49686;51.880;5.632;2022-12-11T13:15:29;23.65;;;10.65;;
63536;SDS011;49686;51.880;5.632;2022-12-11T13:18:03;28.02;;;11.85;;
63536;SDS011;49686;51.880;5.632;2022-12-11T13:20:52;27.08;;;11.13;;
63536;SDS011;49686;51.880;5.632;2022-12-11T13:23:20;24.03;;;11.73;;
63536;SDS011;49686;51.880;5.632;2022-12-11T13:25:53;28.15;;;10.18;;
63536;SDS011;49686;51.880;5.632;2022-12-11T13:28:25;28.80;;;11.35;;
63536;SDS011;49686;51.880;5.632;2022-12-11T13:31:02;28.00;;;11.10;;
63536;SDS011;49686;51.880;5.632;2022-12-11T13:33:32;18.70;;;8.77;;
63536;SDS011;49686;51.880;5.632;2022-12-11T13:38:54;30.65;;;12.80;;
63536;SDS011;49686;51.880;5.632;2022-12-11T13:41:24;29.58;;;10.90;;
63536;SDS011;49686;51.880;5.632;2022-12-11T13:43:53;34.13;;;13.65;;
63536;SDS011;49686;51.880;5.632;2022-12-11T13:46:23;31.50;;;13.15;;
63536;SDS011;49686;51.880;5.632;2022-12-11T13:48:53;25.50;;;12.57;;
63536;SDS011;49686;51.880;5.632;2022-12-11T13:51:23;24.50;;;10.80;;
63536;SDS011;49686;51.880;5.632;2022-12-11T13:56:29;19.00;;;8.55;;
63536;SDS011;49686;51.880;5.632;2022-12-11T13:58:56;24.88;;;10.35;;
63536;SDS011;49686;51.880;5.632;2022-12-11T14:01:23;19.65;;;9.32;;
63536;SDS011;49686;51.880;5.632;2022-12-11T14:03:53;25.33;;;10.88;;
63536;SDS011;49686;51.880;5.632;2022-12-11T14:06:22;23.90;;;10.82;;
63536;SDS011;49686;51.880;5.632;2022-12-11T14:08:51;31.35;;;10.80;;
63536;SDS011;49686;51.880;5.632;2022-12-11T14:11:22;19.85;;;9.18;;
63536;SDS011;49686;51.880;5.632;2022-12-11T14:13:53;26.70;;;11.20;;
63536;SDS011;49686;51.880;5.632;2022-12-11T14:16:25;28.92;;;12.75;;
63536;SDS011;49686;51.880;5.632;2022-12-11T14:18:53;32.15;;;14.30;;
63536;SDS011;49686;51.880;5.632;2022-12-11T14:21:24;23.88;;;10.98;;
63536;SDS011;49686;51.880;5.632;2022-12-11T14:23:51;18.48;;;8.20;;
63536;SDS011;49686;51.880;5.632;2022-12-11T14:26:20;25.77;;;10.40;;
63536;SDS011;49686;51.880;5.632;2022-12-11T14:28:51;22.25;;;10.30;;
63536;SDS011;49686;51.880;5.632;2022-12-11T14:31:21;22.77;;;9.57;;
63536;SDS011;49686;51.880;5.632;2022-12-11T14:33:55;19.05;;;8.93;;
63536;SDS011;49686;51.880;5.632;2022-12-11T14:36:25;26.02;;;10.55;;
63536;SDS011;49686;51.880;5.632;2022-12-11T14:38:55;27.52;;;11.70;;
63536;SDS011;49686;51.880;5.632;2022-12-11T14:41:28;22.52;;;10.23;;
63536;SDS011;49686;51.880;5.632;2022-12-11T14:44:01;18.80;;;8.27;;
63536;SDS011;49686;51.880;5.632;2022-12-11T14:46:36;16.40;;;7.72;;
63536;SDS011;49686;51.880;5.632;2022-12-11T14:49:10;26.27;;;11.32;;
63536;SDS011;49686;51.880;5.632;2022-12-11T14:51:42;23.45;;;10.63;;
63536;SDS011;49686;51.880;5.632;2022-12-11T14:54:10;26.48;;;10.75;;
63536;SDS011;49686;51.880;5.632;2022-12-11T14:56:47;22.90;;;10.00;;
63536;SDS011;49686;51.880;5.632;2022-12-11T14:59:16;25.30;;;10.90;;
63536;SDS011;49686;51.880;5.632;2022-12-11T15:01:46;28.95;;;12.55;;
63536;SDS011;49686;51.880;5.632;2022-12-11T15:04:25;23.98;;;11.55;;